createdAt,value
2019-02-04T00:02:20.962Z,26.47
2019-02-04T00:04:51.761Z,25.57
2019-02-04T00:07:22.328Z,23.63
2019-02-04T00:09:52.953Z,28.80
2019-02-04T00:12:23.516Z,51.30
2019-02-04T00:14:53.815Z,39.03
2019-02-04T00:17:24.108Z,41.30
2019-02-04T00:19:55.150Z,33.70
2019-02-04T00:22:25.425Z,38.83
2019-02-04T00:24:55.870Z,25.97
2019-02-04T00:27:26.496Z,23.60
2019-02-04T00:29:57.019Z,29.40
2019-02-04T00:32:27.679Z,42.73
2019-02-04T00:34:58.432Z,30.67
2019-02-04T00:37:29.232Z,29.63
2019-02-04T00:39:59.555Z,29.30
2019-02-04T00:42:30.088Z,32.30
2019-02-04T00:45:00.758Z,36.30
2019-02-04T00:47:31.060Z,32.07
2019-02-04T00:50:01.684Z,26.77
2019-02-04T00:52:31.955Z,25.97
2019-02-04T00:55:02.918Z,25.30
2019-02-04T00:57:33.658Z,24.77
2019-02-04T01:00:06.003Z,29.07
2019-02-04T01:02:36.361Z,23.70
2019-02-04T01:05:08.149Z,33.57
2019-02-04T01:07:38.446Z,23.50
2019-02-04T01:10:10.662Z,27.47
2019-02-04T01:12:41.574Z,27.57
2019-02-04T01:15:12.095Z,33.73
2019-02-04T01:17:42.382Z,27.30
2019-02-04T01:20:15.442Z,34.13
2019-02-04T01:22:46.352Z,28.30
2019-02-04T01:25:17.114Z,31.63
2019-02-04T01:27:47.398Z,29.17
2019-02-04T01:30:18.477Z,29.87
2019-02-04T01:32:48.942Z,23.67
2019-02-04T01:35:19.301Z,25.03
2019-02-04T01:37:49.820Z,22.43
2019-02-04T01:40:24.920Z,28.73
2019-02-04T01:42:55.532Z,29.73
2019-02-04T01:45:26.049Z,29.27
2019-02-04T01:47:56.552Z,29.13
2019-02-04T01:50:27.085Z,21.27
2019-02-04T01:52:57.721Z,28.23
2019-02-04T01:55:28.064Z,36.63
2019-02-04T01:57:58.370Z,27.13
2019-02-04T02:00:31.619Z,33.63
2019-02-04T02:03:01.897Z,25.97
2019-02-04T02:05:32.382Z,22.80
2019-02-04T02:08:03.162Z,26.40
2019-02-04T02:10:33.687Z,35.60
2019-02-04T02:13:03.974Z,38.43
2019-02-04T02:15:35.155Z,26.70
2019-02-04T02:18:05.874Z,30.80
2019-02-04T02:20:36.331Z,26.73
2019-02-04T02:23:07.056Z,25.57
2019-02-04T02:25:37.618Z,26.97
2019-02-04T02:28:08.476Z,21.43
2019-02-04T02:30:39.244Z,21.67
2019-02-04T02:33:09.591Z,20.10
2019-02-04T02:35:39.946Z,30.47
2019-02-04T02:38:10.235Z,30.73
2019-02-04T02:40:40.908Z,22.80
2019-02-04T02:43:11.815Z,21.33
2019-02-04T02:45:42.440Z,24.20
2019-02-04T02:48:12.960Z,19.13
2019-02-04T02:50:43.485Z,16.23
2019-02-04T02:53:13.763Z,21.83
2019-02-04T02:55:44.606Z,32.60
2019-02-04T02:58:14.922Z,25.30
2019-02-04T03:00:47.322Z,24.40
2019-02-04T03:03:17.615Z,18.33
2019-02-04T03:05:47.960Z,24.47
2019-02-04T03:08:18.844Z,25.63
2019-02-04T03:10:49.377Z,18.33
2019-02-04T03:13:19.670Z,19.50
2019-02-04T03:15:50.619Z,23.10
2019-02-04T03:18:21.549Z,20.27
2019-02-04T03:20:52.173Z,26.00
2019-02-04T03:23:22.946Z,25.57
2019-02-04T03:25:53.711Z,24.67
2019-02-04T03:28:24.015Z,21.40
2019-02-04T03:30:54.399Z,20.20
2019-02-04T03:33:25.208Z,21.60
2019-02-04T03:35:55.592Z,24.93
2019-02-04T03:38:25.950Z,22.13
2019-02-04T03:40:56.260Z,24.70
2019-02-04T03:43:26.872Z,27.67
2019-02-04T03:45:57.789Z,25.23
2019-02-04T03:48:28.250Z,28.13
2019-02-04T03:50:58.816Z,21.20
2019-02-04T03:53:29.414Z,29.50
2019-02-04T03:55:59.738Z,29.90
2019-02-04T03:58:30.140Z,20.73
2019-02-04T04:01:00.819Z,22.00
2019-02-04T04:03:31.634Z,33.83
2019-02-04T04:06:02.358Z,23.63
2019-02-04T04:08:32.659Z,36.67
2019-02-04T04:11:03.001Z,25.40
2019-02-04T04:13:33.651Z,23.53
2019-02-04T04:16:04.015Z,23.03
2019-02-04T04:18:34.379Z,30.47
2019-02-04T04:21:05.177Z,26.40
2019-02-04T04:23:35.457Z,25.87
2019-02-04T04:26:05.954Z,25.20
2019-02-04T04:28:36.614Z,29.87
2019-02-04T04:31:07.326Z,23.27
2019-02-04T04:33:37.670Z,33.67
2019-02-04T04:36:08.248Z,28.23
2019-02-04T04:38:39.029Z,24.87
2019-02-04T04:41:09.331Z,31.20
2019-02-04T04:43:39.949Z,32.03
2019-02-04T04:46:10.542Z,28.90
2019-02-04T04:48:40.970Z,30.03
2019-02-04T04:51:11.485Z,32.73
2019-02-04T04:53:42.268Z,39.23
2019-02-04T04:56:12.551Z,36.43
2019-02-04T04:58:42.848Z,32.23
2019-02-04T05:01:13.633Z,32.13
2019-02-04T05:03:43.921Z,25.60
2019-02-04T05:06:14.678Z,29.80
2019-02-04T05:08:44.982Z,29.03
2019-02-04T05:11:15.427Z,32.37
2019-02-04T05:13:46.135Z,28.93
2019-02-04T05:16:16.454Z,28.97
2019-02-04T05:18:47.044Z,30.67
2019-02-04T05:21:17.731Z,38.30
2019-02-04T05:23:48.015Z,35.03
2019-02-04T05:26:18.381Z,29.43
2019-02-04T05:28:49.068Z,34.83
2019-02-04T05:31:19.826Z,32.47
2019-02-04T05:33:50.360Z,37.97
2019-02-04T05:36:21.127Z,35.17
2019-02-04T05:38:51.453Z,40.23
2019-02-04T05:41:22.000Z,38.93
2019-02-04T05:43:52.486Z,42.40
2019-02-04T05:46:22.909Z,51.63
2019-02-04T05:48:53.512Z,45.30
2019-02-04T05:51:23.952Z,37.40
2019-02-04T05:53:54.475Z,41.50
2019-02-04T05:56:25.129Z,41.27
2019-02-04T05:58:55.898Z,43.80
2019-02-04T06:01:26.172Z,53.73
2019-02-04T06:03:56.892Z,46.83
2019-02-04T06:06:27.276Z,50.97
2019-02-04T06:08:57.749Z,52.53
2019-02-04T06:11:28.337Z,43.67
2019-02-04T06:13:58.627Z,50.40
2019-02-04T06:16:29.410Z,47.10
2019-02-04T06:19:01.277Z,52.33
2019-02-04T06:21:31.645Z,53.20
2019-02-04T06:24:02.759Z,54.37
2019-02-04T06:26:33.353Z,69.57
2019-02-04T06:29:03.814Z,58.73
2019-02-04T06:31:34.285Z,57.10
2019-02-04T06:34:05.128Z,52.80
2019-02-04T06:36:35.425Z,50.90
2019-02-04T06:39:11.087Z,47.90
2019-02-04T06:41:41.607Z,56.97
2019-02-04T06:44:11.970Z,54.33
2019-02-04T06:46:42.578Z,40.13
2019-02-04T06:49:13.119Z,60.40
2019-02-04T06:51:43.469Z,66.27
2019-02-04T06:54:15.118Z,79.87
2019-02-04T06:56:45.444Z,89.83
2019-02-04T06:59:15.887Z,98.30
2019-02-04T07:01:46.682Z,86.03
2019-02-04T07:04:16.931Z,54.77
2019-02-04T07:06:47.270Z,53.87
2019-02-04T07:09:19.013Z,66.77
2019-02-04T07:11:49.317Z,95.80
2019-02-04T07:14:20.091Z,42.80
2019-02-04T07:16:50.582Z,47.07
2019-02-04T07:19:24.362Z,44.40
2019-02-04T07:21:52.999Z,52.00
2019-02-04T07:24:23.295Z,54.90
2019-02-04T07:26:53.619Z,47.67
2019-02-04T07:29:24.409Z,52.23
2019-02-04T07:31:54.715Z,54.40
2019-02-04T07:34:24.993Z,53.27
2019-02-04T07:36:55.709Z,49.93
2019-02-04T07:39:26.151Z,54.13
2019-02-04T07:41:56.510Z,54.47
2019-02-04T07:44:27.471Z,51.30
2019-02-04T07:46:57.777Z,44.63
2019-02-04T07:49:35.150Z,43.67
2019-02-04T07:52:00.786Z,38.37
2019-02-04T07:54:31.095Z,35.07
2019-02-04T07:57:02.096Z,37.03
2019-02-04T07:59:32.407Z,27.17
2019-02-04T08:02:02.679Z,32.53
2019-02-04T08:04:33.538Z,32.10
2019-02-04T08:07:04.279Z,50.53
2019-02-04T08:09:34.895Z,34.47
2019-02-04T08:12:05.473Z,38.07
2019-02-04T08:14:36.076Z,34.07
2019-02-04T08:17:07.499Z,30.20
2019-02-04T08:19:46.709Z,39.87
2019-02-04T08:22:10.231Z,41.17
2019-02-04T08:24:40.877Z,39.07
2019-02-04T08:27:11.660Z,36.53
2019-02-04T08:29:41.942Z,38.77
2019-02-04T08:32:12.303Z,40.70
2019-02-04T08:34:42.708Z,28.27
2019-02-04T08:37:13.304Z,36.47
2019-02-04T08:39:43.632Z,35.63
2019-02-04T08:42:14.407Z,44.37
2019-02-04T08:44:44.730Z,35.10
2019-02-04T08:47:22.894Z,42.90
2019-02-04T08:49:57.740Z,33.30
2019-02-04T08:52:19.675Z,42.40
2019-02-04T08:54:49.952Z,33.17
2019-02-04T08:57:20.567Z,34.13
2019-02-04T08:59:51.083Z,41.47
2019-02-04T09:02:21.652Z,36.20
2019-02-04T09:04:52.413Z,29.23
2019-02-04T09:07:23.214Z,38.83
2019-02-04T09:09:54.566Z,34.40
2019-02-04T09:12:25.373Z,26.53
2019-02-04T09:14:56.230Z,31.37
2019-02-04T09:17:26.649Z,26.67
2019-02-04T09:19:57.037Z,23.93
2019-02-04T09:22:27.629Z,27.90
2019-02-04T09:24:58.198Z,26.67
2019-02-04T09:27:28.920Z,28.87
2019-02-04T09:29:59.187Z,26.60
2019-02-04T09:32:30.028Z,25.73
2019-02-04T09:35:00.829Z,20.20
2019-02-04T09:37:31.259Z,29.57
2019-02-04T09:40:01.671Z,37.60
2019-02-04T09:42:32.349Z,27.03
2019-02-04T09:45:02.628Z,31.90
2019-02-04T09:47:32.959Z,26.67
2019-02-04T09:50:03.332Z,24.63
2019-02-04T09:52:33.647Z,24.17
2019-02-04T09:55:04.749Z,25.47
2019-02-04T09:57:35.077Z,24.87
2019-02-04T10:00:07.165Z,33.27
2019-02-04T10:02:38.011Z,30.57
2019-02-04T10:05:09.893Z,26.20
2019-02-04T10:07:40.456Z,31.43
2019-02-04T10:10:12.555Z,26.30
2019-02-04T10:12:43.192Z,33.00
2019-02-04T10:15:16.676Z,31.73
2019-02-04T10:17:47.451Z,27.30
2019-02-04T10:20:18.061Z,35.93
2019-02-04T10:22:48.687Z,39.43
2019-02-04T10:25:21.521Z,28.80
2019-02-04T10:27:51.794Z,32.63
2019-02-04T10:30:23.305Z,30.33
2019-02-04T10:32:54.077Z,35.47
2019-02-04T10:35:24.431Z,45.57
2019-02-04T10:37:55.446Z,42.67
2019-02-04T10:40:26.903Z,33.43
2019-02-04T10:42:57.597Z,30.80
2019-02-04T10:45:28.356Z,27.10
2019-02-04T10:47:59.294Z,25.00
2019-02-04T10:50:32.389Z,37.30
2019-02-04T10:53:03.345Z,36.10
2019-02-04T10:55:33.968Z,28.17
2019-02-04T10:58:04.620Z,30.20
2019-02-04T11:00:35.572Z,29.93
2019-02-04T11:03:06.563Z,28.87
2019-02-04T11:05:37.618Z,38.50
2019-02-04T11:08:09.527Z,40.43
2019-02-04T11:10:40.039Z,33.20
2019-02-04T11:13:12.846Z,33.77
2019-02-04T11:15:44.408Z,36.37
2019-02-04T11:18:16.038Z,44.70
2019-02-04T11:20:57.632Z,44.80
2019-02-04T11:23:19.473Z,36.17
2019-02-04T11:25:49.763Z,35.20
2019-02-04T11:28:20.394Z,31.60
2019-02-04T11:30:56.577Z,34.80
2019-02-04T11:33:27.937Z,31.50
2019-02-04T11:35:58.319Z,36.07
2019-02-04T11:38:28.650Z,38.57
2019-02-04T11:40:59.373Z,30.10
2019-02-04T11:43:30.237Z,27.47
2019-02-04T11:46:00.621Z,34.13
2019-02-04T11:48:31.249Z,31.43
2019-02-04T11:51:09.282Z,40.33
2019-02-04T11:53:34.116Z,29.57
2019-02-04T11:56:04.608Z,34.43
2019-02-04T11:58:35.262Z,21.63
2019-02-04T12:01:06.507Z,24.30
2019-02-04T12:03:37.262Z,35.90
2019-02-04T12:06:07.930Z,48.60
2019-02-04T12:08:38.270Z,32.13
2019-02-04T12:11:16.074Z,44.63
2019-02-04T12:13:46.561Z,53.33
2019-02-04T12:16:16.944Z,27.07
2019-02-04T12:18:47.917Z,31.30
2019-02-04T12:21:21.568Z,23.27
2019-02-04T12:23:50.534Z,34.00
2019-02-04T12:26:21.698Z,42.33
2019-02-04T12:28:52.343Z,31.43
2019-02-04T12:31:23.255Z,31.17
2019-02-04T12:33:54.014Z,51.17
2019-02-04T12:36:24.353Z,40.07
2019-02-04T12:38:55.404Z,62.40
2019-02-04T12:41:25.900Z,61.97
2019-02-04T12:43:56.493Z,77.00
2019-02-04T12:46:27.083Z,70.50
2019-02-04T12:48:58.455Z,67.57
2019-02-04T12:51:33.647Z,63.33
2019-02-04T12:54:00.889Z,57.10
2019-02-04T12:56:31.708Z,43.00
2019-02-04T12:59:01.975Z,43.23
2019-02-04T13:01:32.418Z,42.20
2019-02-04T13:04:03.496Z,40.00
2019-02-04T13:06:33.771Z,40.97
2019-02-04T13:09:06.146Z,41.93
2019-02-04T13:11:37.911Z,48.63
2019-02-04T13:14:08.597Z,43.73
2019-02-04T13:16:38.894Z,40.97
2019-02-04T13:19:10.659Z,51.47
2019-02-04T13:21:45.526Z,43.20
2019-02-04T13:24:14.358Z,47.27
2019-02-04T13:26:44.972Z,57.53
2019-02-04T13:29:15.372Z,30.50
2019-02-04T13:31:45.669Z,36.83
2019-02-04T13:34:16.094Z,44.53
2019-02-04T13:36:47.001Z,39.57
2019-02-04T13:39:17.320Z,31.23
2019-02-04T13:41:47.841Z,46.27
2019-02-04T13:44:18.139Z,30.03
2019-02-04T13:46:48.812Z,31.33
2019-02-04T13:49:19.565Z,35.63
2019-02-04T13:51:57.015Z,42.27
2019-02-04T13:54:22.269Z,33.80
2019-02-04T13:56:53.078Z,32.27
2019-02-04T13:59:23.481Z,44.17
2019-02-04T14:01:55.106Z,36.23
2019-02-04T14:04:25.819Z,38.33
2019-02-04T14:06:56.074Z,20.13
2019-02-04T14:09:26.352Z,27.00
2019-02-04T14:11:56.833Z,20.00
2019-02-04T14:14:27.188Z,18.20
2019-02-04T14:16:58.060Z,33.43
2019-02-04T14:19:28.336Z,33.87
2019-02-04T14:22:08.894Z,27.53
2019-02-04T14:24:31.167Z,23.47
2019-02-04T14:27:01.755Z,28.43
2019-02-04T14:29:33.845Z,31.13
2019-02-04T14:32:04.681Z,34.13
2019-02-04T14:34:35.105Z,36.33
2019-02-04T14:37:05.711Z,27.13
2019-02-04T14:39:36.494Z,25.07
2019-02-04T14:42:10.733Z,28.27
2019-02-04T14:44:55.417Z,23.13
2019-02-04T14:47:31.272Z,42.77
2019-02-04T14:50:28.979Z,29.53
2019-02-04T14:53:52.642Z,30.47
2019-02-04T14:56:34.667Z,55.40
2019-02-04T14:59:33.879Z,41.33
2019-02-04T15:02:34.752Z,22.57
2019-02-04T15:05:47.622Z,33.27
2019-02-04T15:08:59.080Z,38.33
2019-02-04T15:12:05.174Z,27.97
2019-02-04T15:15:28.895Z,41.20
2019-02-04T15:18:45.045Z,29.63
2019-02-04T15:21:48.788Z,35.63
2019-02-04T15:25:02.364Z,34.37
2019-02-04T15:28:08.368Z,45.27
2019-02-04T15:31:04.791Z,72.60
2019-02-04T15:33:44.971Z,45.23
2019-02-04T15:36:31.632Z,34.77
2019-02-04T15:39:14.975Z,52.57
2019-02-04T15:42:01.744Z,48.67
2019-02-04T15:45:12.507Z,36.50
2019-02-04T15:47:53.763Z,36.30
2019-02-04T15:51:11.039Z,44.10
2019-02-04T15:53:41.703Z,42.10
2019-02-04T15:56:12.867Z,37.77
2019-02-04T15:58:43.367Z,33.90
2019-02-04T16:01:14.138Z,36.83
2019-02-04T16:03:44.478Z,31.60
2019-02-04T16:06:15.197Z,32.57
2019-02-04T16:08:45.771Z,41.50
2019-02-04T16:11:16.058Z,27.83
2019-02-04T16:13:46.403Z,31.33
2019-02-04T16:16:17.158Z,22.87
2019-02-04T16:18:47.560Z,26.10
2019-02-04T16:21:17.847Z,28.57
2019-02-04T16:23:48.678Z,33.97
2019-02-04T16:26:18.952Z,27.97
2019-02-04T16:28:49.451Z,29.83
2019-02-04T16:31:20.114Z,53.63
2019-02-04T16:33:50.827Z,36.60
2019-02-04T16:36:21.568Z,38.10
2019-02-04T16:38:51.888Z,46.20
2019-02-04T16:41:22.183Z,51.07
2019-02-04T16:43:52.539Z,34.70
2019-02-04T16:46:22.866Z,23.00
2019-02-04T16:48:53.175Z,25.37
2019-02-04T16:51:23.937Z,26.20
2019-02-04T16:53:55.406Z,29.10
2019-02-04T16:56:25.829Z,22.43
2019-02-04T16:58:56.781Z,24.57
2019-02-04T17:01:27.387Z,29.40
2019-02-04T17:03:58.067Z,21.47
2019-02-04T17:06:28.428Z,25.70
2019-02-04T17:08:58.716Z,38.17
2019-02-04T17:11:29.228Z,25.07
2019-02-04T17:13:59.606Z,28.83
2019-02-04T17:16:29.900Z,32.77
2019-02-04T17:19:01.707Z,29.60
2019-02-04T17:21:32.436Z,35.17
2019-02-04T17:24:02.882Z,36.17
2019-02-04T17:26:33.660Z,26.43
2019-02-04T17:29:04.756Z,32.17
2019-02-04T17:31:35.141Z,35.27
2019-02-04T17:34:05.725Z,28.40
2019-02-04T17:36:36.493Z,37.50
2019-02-04T17:39:08.692Z,29.77
2019-02-04T17:41:38.988Z,34.97
2019-02-04T17:44:09.676Z,42.07
2019-02-04T17:46:39.963Z,38.20
2019-02-04T17:49:10.242Z,50.20
2019-02-04T17:51:41.145Z,42.03
2019-02-04T17:54:11.610Z,42.40
2019-02-04T17:56:41.954Z,47.87
2019-02-04T17:59:12.720Z,49.17
2019-02-04T18:01:43.634Z,55.57
2019-02-04T18:04:13.866Z,58.57
2019-02-04T18:06:44.583Z,60.17
2019-02-04T18:09:14.861Z,54.00
2019-02-04T18:11:45.317Z,61.77
2019-02-04T18:14:15.882Z,42.90
2019-02-04T18:16:46.237Z,49.20
2019-02-04T18:19:16.892Z,42.77
2019-02-04T18:21:47.584Z,48.40
2019-02-04T18:24:18.256Z,40.93
2019-02-04T18:26:48.971Z,50.43
2019-02-04T18:29:19.679Z,51.40
2019-02-04T18:31:50.181Z,50.20
2019-02-04T18:34:20.555Z,48.00
2019-02-04T18:36:50.970Z,52.00
2019-02-04T18:39:21.269Z,50.27
2019-02-04T18:41:51.653Z,47.20
2019-02-04T18:44:21.948Z,39.97
2019-02-04T18:46:53.108Z,39.47
2019-02-04T18:49:24.030Z,51.40
2019-02-04T18:51:54.357Z,42.60
2019-02-04T18:54:25.054Z,34.27
2019-02-04T18:56:55.762Z,40.50
2019-02-04T18:59:26.278Z,26.00
2019-02-04T19:01:57.136Z,27.07
2019-02-04T19:04:28.075Z,33.70
2019-02-04T19:06:58.339Z,56.37
2019-02-04T19:09:28.799Z,18.63
2019-02-04T19:11:59.175Z,21.03
2019-02-04T19:14:29.732Z,23.87
2019-02-04T19:17:00.231Z,24.37
2019-02-04T19:19:30.517Z,19.87
2019-02-04T19:22:00.856Z,23.57
2019-02-04T19:24:31.523Z,23.53
2019-02-04T19:27:01.791Z,26.23
2019-02-04T19:29:32.391Z,26.67
2019-02-04T19:32:03.078Z,23.77
2019-02-04T19:34:33.643Z,29.13
2019-02-04T19:37:04.237Z,26.10
2019-02-04T19:39:34.900Z,25.83
2019-02-04T19:42:05.964Z,28.07
2019-02-04T19:44:36.422Z,24.07
2019-02-04T19:47:07.512Z,27.80
2019-02-04T19:49:37.787Z,22.60
2019-02-04T19:52:08.708Z,23.07
2019-02-04T19:54:39.167Z,22.33
2019-02-04T19:57:09.438Z,22.50
2019-02-04T19:59:40.074Z,21.63
2019-02-04T20:02:10.753Z,22.03
2019-02-04T20:04:42.029Z,21.23
2019-02-04T20:07:12.645Z,24.43
2019-02-04T20:09:43.731Z,31.43
2019-02-04T20:12:14.024Z,36.33
2019-02-04T20:14:44.488Z,29.23
2019-02-04T20:17:14.803Z,29.53
2019-02-04T20:19:45.427Z,34.23
2019-02-04T20:22:16.000Z,30.17
2019-02-04T20:24:46.267Z,33.27
2019-02-04T20:27:16.941Z,28.60
2019-02-04T20:29:47.527Z,42.07
2019-02-04T20:32:17.896Z,33.60
2019-02-04T20:34:48.309Z,46.77
2019-02-04T20:37:19.467Z,45.27
2019-02-04T20:39:49.765Z,49.37
2019-02-04T20:42:21.080Z,52.60
2019-02-04T20:44:51.446Z,46.43
2019-02-04T20:47:21.763Z,45.60
2019-02-04T20:49:52.599Z,48.27
2019-02-04T20:52:22.922Z,33.93
2019-02-04T20:54:53.394Z,28.07
2019-02-04T20:57:24.100Z,33.53
2019-02-04T20:59:54.510Z,31.77
2019-02-04T21:02:24.842Z,43.97
2019-02-04T21:04:55.848Z,53.80
2019-02-04T21:07:26.159Z,43.27
2019-02-04T21:09:56.508Z,25.13
2019-02-04T21:12:27.135Z,33.73
2019-02-04T21:14:57.528Z,28.70
2019-02-04T21:17:27.813Z,24.03
2019-02-04T21:19:58.446Z,29.10
2019-02-04T21:22:28.742Z,32.57
2019-02-04T21:24:59.507Z,33.83
2019-02-04T21:27:29.783Z,38.53
2019-02-04T21:30:00.340Z,41.53
2019-02-04T21:32:32.592Z,47.03
2019-02-04T21:35:03.248Z,52.50
2019-02-04T21:37:33.522Z,38.33
2019-02-04T21:40:05.246Z,39.07
2019-02-04T21:42:36.573Z,27.83
2019-02-04T21:45:08.622Z,30.63
2019-02-04T21:47:39.245Z,39.67
2019-02-04T21:50:12.999Z,33.70
2019-02-04T21:52:43.392Z,34.30
2019-02-04T21:55:14.265Z,27.93
2019-02-04T21:57:45.357Z,34.67
2019-02-04T22:00:21.226Z,31.67
2019-02-04T22:02:51.601Z,34.90
2019-02-04T22:05:23.647Z,31.57
2019-02-04T22:07:53.932Z,36.00
2019-02-04T22:10:25.551Z,40.57
2019-02-04T22:12:55.938Z,39.80
2019-02-04T22:15:26.358Z,46.23
2019-02-04T22:17:56.782Z,42.47
2019-02-04T22:20:27.519Z,41.77
2019-02-04T22:22:57.843Z,42.20
2019-02-04T22:25:28.298Z,43.57
2019-02-04T22:27:58.608Z,39.37
2019-02-04T22:30:30.199Z,45.77
2019-02-04T22:33:00.740Z,43.93
2019-02-04T22:35:31.028Z,43.17
2019-02-04T22:38:01.827Z,44.77
2019-02-04T22:40:32.165Z,36.83
2019-02-04T22:43:02.491Z,36.60
2019-02-04T22:45:32.777Z,25.80
2019-02-04T22:48:03.295Z,36.43
2019-02-04T22:50:33.596Z,42.83
2019-02-04T22:53:04.396Z,46.47
2019-02-04T22:55:34.696Z,42.60
2019-02-04T22:58:05.427Z,37.90
2019-02-04T23:01:03.727Z,42.80
2019-02-04T23:03:34.510Z,42.07
2019-02-04T23:06:04.911Z,42.97
2019-02-04T23:08:35.691Z,37.47
2019-02-04T23:11:06.071Z,26.33
2019-02-04T23:13:36.764Z,39.47
2019-02-04T23:16:07.151Z,40.97
2019-02-04T23:18:37.466Z,34.20
2019-02-04T23:21:07.776Z,38.80
2019-02-04T23:23:38.106Z,35.20
2019-02-04T23:26:09.018Z,37.57
2019-02-04T23:28:39.339Z,30.13
2019-02-04T23:31:09.981Z,37.23
2019-02-04T23:33:40.397Z,35.47
2019-02-04T23:36:10.903Z,27.83
2019-02-04T23:38:41.592Z,23.27
2019-02-04T23:41:11.842Z,23.37
2019-02-04T23:43:42.115Z,22.03
2019-02-04T23:46:12.925Z,25.70
2019-02-04T23:48:43.210Z,22.83
2019-02-04T23:51:13.525Z,25.70
2019-02-04T23:53:45.566Z,28.00
2019-02-04T23:56:16.112Z,34.53
2019-02-04T23:58:46.407Z,26.10
